sensor_id;sensor_type;location;lat;lon;timestamp;P1;durP1;ratioP1;P2;durP2;ratioP2
7017;SDS011;3549;42.162;24.726;2023-07-20T00:01:57;13.13;;;9.90;;
7017;SDS011;3549;42.162;24.726;2023-07-20T00:04:23;13.30;;;9.30;;
7017;SDS011;3549;42.162;24.726;2023-07-20T00:06:48;12.20;;;8.63;;
7017;SDS011;3549;42.162;24.726;2023-07-20T00:09:13;14.60;;;9.17;;
7017;SDS011;3549;42.162;24.726;2023-07-20T00:11:39;14.73;;;9.13;;
7017;SDS011;3549;42.162;24.726;2023-07-20T00:14:05;12.77;;;8.67;;
7017;SDS011;3549;42.162;24.726;2023-07-20T00:16:30;13.77;;;8.73;;
7017;SDS011;3549;42.162;24.726;2023-07-20T00:18:56;15.93;;;9.10;;
7017;SDS011;3549;42.162;24.726;2023-07-20T00:21:21;12.37;;;8.90;;
7017;SDS011;3549;42.162;24.726;2023-07-20T00:23:47;13.77;;;8.60;;
7017;SDS011;3549;42.162;24.726;2023-07-20T00:26:12;13.30;;;8.03;;
7017;SDS011;3549;42.162;24.726;2023-07-20T00:28:37;13.47;;;8.30;;
7017;SDS011;3549;42.162;24.726;2023-07-20T00:31:03;12.73;;;8.57;;
7017;SDS011;3549;42.162;24.726;2023-07-20T00:33:29;13.83;;;8.07;;
7017;SDS011;3549;42.162;24.726;2023-07-20T00:35:55;12.73;;;8.27;;
7017;SDS011;3549;42.162;24.726;2023-07-20T00:38:20;10.83;;;8.37;;
7017;SDS011;3549;42.162;24.726;2023-07-20T00:40:45;12.43;;;8.97;;
7017;SDS011;3549;42.162;24.726;2023-07-20T00:43:11;12.77;;;8.90;;
7017;SDS011;3549;42.162;24.726;2023-07-20T00:45:36;12.43;;;8.77;;
7017;SDS011;3549;42.162;24.726;2023-07-20T00:48:03;13.27;;;8.07;;
7017;SDS011;3549;42.162;24.726;2023-07-20T00:50:31;11.93;;;8.20;;
7017;SDS011;3549;42.162;24.726;2023-07-20T00:52:58;12.32;;;8.75;;
7017;SDS011;3549;42.162;24.726;2023-07-20T00:55:24;11.23;;;8.15;;
7017;SDS011;3549;42.162;24.726;2023-07-20T00:57:50;14.13;;;8.68;;
7017;SDS011;3549;42.162;24.726;2023-07-20T01:00:16;13.85;;;8.38;;
7017;SDS011;3549;42.162;24.726;2023-07-20T01:02:42;15.77;;;8.73;;
7017;SDS011;3549;42.162;24.726;2023-07-20T01:05:07;16.13;;;8.18;;
7017;SDS011;3549;42.162;24.726;2023-07-20T01:07:41;19.77;;;8.65;;
7017;SDS011;3549;42.162;24.726;2023-07-20T01:12:53;16.83;;;8.73;;
7017;SDS011;3549;42.162;24.726;2023-07-20T01:15:20;15.70;;;8.40;;
7017;SDS011;3549;42.162;24.726;2023-07-20T01:17:45;18.35;;;8.85;;
7017;SDS011;3549;42.162;24.726;2023-07-20T01:20:14;16.83;;;8.40;;
7017;SDS011;3549;42.162;24.726;2023-07-20T01:25:19;13.20;;;8.13;;
7017;SDS011;3549;42.162;24.726;2023-07-20T01:30:43;14.68;;;8.05;;
7017;SDS011;3549;42.162;24.726;2023-07-20T01:33:29;14.95;;;8.25;;
7017;SDS011;3549;42.162;24.726;2023-07-20T01:35:58;12.82;;;8.30;;
7017;SDS011;3549;42.162;24.726;2023-07-20T01:38:25;11.57;;;8.43;;
7017;SDS011;3549;42.162;24.726;2023-07-20T01:40:51;13.00;;;8.20;;
7017;SDS011;3549;42.162;24.726;2023-07-20T01:43:17;19.17;;;8.82;;
7017;SDS011;3549;42.162;24.726;2023-07-20T01:45:43;11.60;;;8.20;;
7017;SDS011;3549;42.162;24.726;2023-07-20T01:48:09;11.75;;;8.00;;
7017;SDS011;3549;42.162;24.726;2023-07-20T01:50:34;17.77;;;8.38;;
7017;SDS011;3549;42.162;24.726;2023-07-20T01:53:00;18.15;;;8.68;;
7017;SDS011;3549;42.162;24.726;2023-07-20T01:55:26;13.00;;;8.45;;
7017;SDS011;3549;42.162;24.726;2023-07-20T01:57:52;13.18;;;8.07;;
7017;SDS011;3549;42.162;24.726;2023-07-20T02:00:18;12.77;;;8.50;;
7017;SDS011;3549;42.162;24.726;2023-07-20T02:02:46;14.52;;;8.40;;
7017;SDS011;3549;42.162;24.726;2023-07-20T02:05:12;12.65;;;8.32;;
7017;SDS011;3549;42.162;24.726;2023-07-20T02:07:37;14.60;;;7.82;;
7017;SDS011;3549;42.162;24.726;2023-07-20T02:10:03;14.50;;;7.75;;
7017;SDS011;3549;42.162;24.726;2023-07-20T02:12:28;15.35;;;8.02;;
7017;SDS011;3549;42.162;24.726;2023-07-20T02:14:54;12.48;;;7.97;;
7017;SDS011;3549;42.162;24.726;2023-07-20T02:17:19;14.23;;;7.72;;
7017;SDS011;3549;42.162;24.726;2023-07-20T02:19:44;13.10;;;8.32;;
7017;SDS011;3549;42.162;24.726;2023-07-20T02:22:10;11.90;;;7.90;;
7017;SDS011;3549;42.162;24.726;2023-07-20T02:24:35;13.93;;;8.13;;
7017;SDS011;3549;42.162;24.726;2023-07-20T02:27:01;16.73;;;8.95;;
7017;SDS011;3549;42.162;24.726;2023-07-20T02:29:26;17.67;;;9.00;;
7017;SDS011;3549;42.162;24.726;2023-07-20T02:31:52;15.52;;;8.90;;
7017;SDS011;3549;42.162;24.726;2023-07-20T02:34:17;12.30;;;8.65;;
7017;SDS011;3549;42.162;24.726;2023-07-20T02:36:43;13.88;;;8.35;;
7017;SDS011;3549;42.162;24.726;2023-07-20T02:39:08;14.23;;;8.30;;
7017;SDS011;3549;42.162;24.726;2023-07-20T02:41:34;13.27;;;8.10;;
7017;SDS011;3549;42.162;24.726;2023-07-20T02:44:00;15.85;;;9.00;;
7017;SDS011;3549;42.162;24.726;2023-07-20T02:46:27;22.13;;;9.55;;
7017;SDS011;3549;42.162;24.726;2023-07-20T02:48:55;30.73;;;10.52;;
7017;SDS011;3549;42.162;24.726;2023-07-20T02:51:20;27.77;;;10.97;;
7017;SDS011;3549;42.162;24.726;2023-07-20T02:53:46;22.77;;;9.43;;
7017;SDS011;3549;42.162;24.726;2023-07-20T02:56:11;19.85;;;9.43;;
7017;SDS011;3549;42.162;24.726;2023-07-20T02:58:39;22.95;;;9.40;;
7017;SDS011;3549;42.162;24.726;2023-07-20T03:01:08;20.45;;;11.10;;
7017;SDS011;3549;42.162;24.726;2023-07-20T03:03:34;33.25;;;12.30;;
7017;SDS011;3549;42.162;24.726;2023-07-20T03:06:04;22.60;;;10.48;;
7017;SDS011;3549;42.162;24.726;2023-07-20T03:08:29;18.27;;;9.75;;
7017;SDS011;3549;42.162;24.726;2023-07-20T03:10:55;19.00;;;8.80;;
7017;SDS011;3549;42.162;24.726;2023-07-20T03:13:20;15.37;;;8.10;;
7017;SDS011;3549;42.162;24.726;2023-07-20T03:15:46;18.17;;;8.90;;
7017;SDS011;3549;42.162;24.726;2023-07-20T03:18:11;15.57;;;8.50;;
7017;SDS011;3549;42.162;24.726;2023-07-20T03:20:38;33.73;;;11.73;;
7017;SDS011;3549;42.162;24.726;2023-07-20T03:23:04;30.30;;;11.90;;
7017;SDS011;3549;42.162;24.726;2023-07-20T03:25:29;27.43;;;10.83;;
7017;SDS011;3549;42.162;24.726;2023-07-20T03:27:54;15.17;;;9.50;;
7017;SDS011;3549;42.162;24.726;2023-07-20T03:30:20;15.73;;;9.40;;
7017;SDS011;3549;42.162;24.726;2023-07-20T03:32:45;17.17;;;9.17;;
7017;SDS011;3549;42.162;24.726;2023-07-20T03:35:11;16.07;;;8.73;;
7017;SDS011;3549;42.162;24.726;2023-07-20T03:37:36;21.73;;;8.90;;
7017;SDS011;3549;42.162;24.726;2023-07-20T03:40:03;17.90;;;9.13;;
7017;SDS011;3549;42.162;24.726;2023-07-20T03:42:29;21.80;;;9.50;;
7017;SDS011;3549;42.162;24.726;2023-07-20T03:44:55;21.13;;;9.90;;
7017;SDS011;3549;42.162;24.726;2023-07-20T03:47:21;14.10;;;8.20;;
7017;SDS011;3549;42.162;24.726;2023-07-20T03:49:46;15.10;;;8.77;;
7017;SDS011;3549;42.162;24.726;2023-07-20T03:52:12;15.90;;;8.73;;
7017;SDS011;3549;42.162;24.726;2023-07-20T03:54:37;12.90;;;8.93;;
7017;SDS011;3549;42.162;24.726;2023-07-20T03:57:02;13.23;;;8.77;;
7017;SDS011;3549;42.162;24.726;2023-07-20T03:59:28;16.80;;;8.25;;
7017;SDS011;3549;42.162;24.726;2023-07-20T04:01:53;14.07;;;8.90;;
7017;SDS011;3549;42.162;24.726;2023-07-20T04:04:19;16.73;;;9.20;;
7017;SDS011;3549;42.162;24.726;2023-07-20T04:06:45;13.63;;;9.17;;
7017;SDS011;3549;42.162;24.726;2023-07-20T04:09:11;17.15;;;8.98;;
7017;SDS011;3549;42.162;24.726;2023-07-20T04:11:37;15.48;;;8.80;;
7017;SDS011;3549;42.162;24.726;2023-07-20T04:14:02;19.75;;;9.27;;
7017;SDS011;3549;42.162;24.726;2023-07-20T04:16:28;15.43;;;8.87;;
7017;SDS011;3549;42.162;24.726;2023-07-20T04:18:56;13.82;;;8.73;;
7017;SDS011;3549;42.162;24.726;2023-07-20T04:21:22;26.42;;;10.10;;
7017;SDS011;3549;42.162;24.726;2023-07-20T04:23:47;28.63;;;10.35;;
7017;SDS011;3549;42.162;24.726;2023-07-20T04:26:13;31.98;;;10.98;;
7017;SDS011;3549;42.162;24.726;2023-07-20T04:28:39;37.92;;;11.40;;
7017;SDS011;3549;42.162;24.726;2023-07-20T04:31:13;29.38;;;10.60;;
7017;SDS011;3549;42.162;24.726;2023-07-20T04:33:39;32.13;;;10.25;;
7017;SDS011;3549;42.162;24.726;2023-07-20T04:36:05;26.92;;;9.90;;
7017;SDS011;3549;42.162;24.726;2023-07-20T04:38:31;17.15;;;9.52;;
7017;SDS011;3549;42.162;24.726;2023-07-20T04:40:56;20.35;;;10.02;;
7017;SDS011;3549;42.162;24.726;2023-07-20T04:43:21;19.42;;;9.90;;
7017;SDS011;3549;42.162;24.726;2023-07-20T04:45:47;21.33;;;9.73;;
7017;SDS011;3549;42.162;24.726;2023-07-20T04:48:13;18.30;;;10.25;;
7017;SDS011;3549;42.162;24.726;2023-07-20T04:50:41;20.52;;;10.68;;
7017;SDS011;3549;42.162;24.726;2023-07-20T04:53:07;19.98;;;10.18;;
7017;SDS011;3549;42.162;24.726;2023-07-20T04:55:35;21.50;;;10.68;;
7017;SDS011;3549;42.162;24.726;2023-07-20T04:58:02;21.02;;;10.88;;
7017;SDS011;3549;42.162;24.726;2023-07-20T05:00:28;24.10;;;12.55;;
7017;SDS011;3549;42.162;24.726;2023-07-20T05:02:54;28.75;;;13.00;;
7017;SDS011;3549;42.162;24.726;2023-07-20T05:05:20;21.23;;;12.15;;
7017;SDS011;3549;42.162;24.726;2023-07-20T05:07:46;20.83;;;11.73;;
7017;SDS011;3549;42.162;24.726;2023-07-20T05:10:11;24.65;;;10.93;;
7017;SDS011;3549;42.162;24.726;2023-07-20T05:12:37;23.85;;;11.25;;
7017;SDS011;3549;42.162;24.726;2023-07-20T05:15:02;22.38;;;11.07;;
7017;SDS011;3549;42.162;24.726;2023-07-20T05:17:28;26.88;;;10.65;;
7017;SDS011;3549;42.162;24.726;2023-07-20T05:19:54;22.90;;;10.52;;
7017;SDS011;3549;42.162;24.726;2023-07-20T05:22:19;20.75;;;10.30;;
7017;SDS011;3549;42.162;24.726;2023-07-20T05:24:45;21.58;;;9.75;;
7017;SDS011;3549;42.162;24.726;2023-07-20T05:27:10;18.70;;;9.77;;
7017;SDS011;3549;42.162;24.726;2023-07-20T05:29:36;21.95;;;9.82;;
7017;SDS011;3549;42.162;24.726;2023-07-20T05:32:01;17.58;;;9.93;;
7017;SDS011;3549;42.162;24.726;2023-07-20T05:34:27;16.65;;;9.93;;
7017;SDS011;3549;42.162;24.726;2023-07-20T05:38:13;16.83;;;9.77;;
7017;SDS011;3549;42.162;24.726;2023-07-20T05:40:43;19.25;;;9.50;;
7017;SDS011;3549;42.162;24.726;2023-07-20T05:43:10;19.38;;;8.63;;
7017;SDS011;3549;42.162;24.726;2023-07-20T05:45:36;27.17;;;9.63;;
7017;SDS011;3549;42.162;24.726;2023-07-20T05:48:02;17.25;;;9.60;;
7017;SDS011;3549;42.162;24.726;2023-07-20T05:50:28;19.25;;;9.18;;
7017;SDS011;3549;42.162;24.726;2023-07-20T05:52:54;17.67;;;9.75;;
7017;SDS011;3549;42.162;24.726;2023-07-20T05:55:20;15.68;;;8.60;;
7017;SDS011;3549;42.162;24.726;2023-07-20T05:57:46;14.38;;;8.77;;
7017;SDS011;3549;42.162;24.726;2023-07-20T06:00:13;18.50;;;8.98;;
7017;SDS011;3549;42.162;24.726;2023-07-20T06:02:39;16.20;;;8.80;;
7017;SDS011;3549;42.162;24.726;2023-07-20T06:05:06;17.67;;;8.57;;
7017;SDS011;3549;42.162;24.726;2023-07-20T06:07:36;16.42;;;8.32;;
7017;SDS011;3549;42.162;24.726;2023-07-20T06:10:02;15.25;;;8.85;;
7017;SDS011;3549;42.162;24.726;2023-07-20T06:12:28;15.95;;;8.70;;
7017;SDS011;3549;42.162;24.726;2023-07-20T06:14:53;19.58;;;8.60;;
7017;SDS011;3549;42.162;24.726;2023-07-20T06:17:19;18.20;;;9.20;;
7017;SDS011;3549;42.162;24.726;2023-07-20T06:19:44;17.48;;;8.98;;
7017;SDS011;3549;42.162;24.726;2023-07-20T06:22:10;21.95;;;8.75;;
7017;SDS011;3549;42.162;24.726;2023-07-20T06:24:35;14.75;;;8.45;;
7017;SDS011;3549;42.162;24.726;2023-07-20T06:27:00;16.00;;;8.30;;
7017;SDS011;3549;42.162;24.726;2023-07-20T06:29:26;15.15;;;8.50;;
7017;SDS011;3549;42.162;24.726;2023-07-20T06:31:51;15.98;;;8.55;;
7017;SDS011;3549;42.162;24.726;2023-07-20T06:34:17;16.27;;;8.95;;
7017;SDS011;3549;42.162;24.726;2023-07-20T06:36:42;16.67;;;9.48;;
7017;SDS011;3549;42.162;24.726;2023-07-20T06:39:08;13.82;;;8.95;;
7017;SDS011;3549;42.162;24.726;2023-07-20T06:41:33;16.70;;;8.82;;
7017;SDS011;3549;42.162;24.726;2023-07-20T06:43:59;20.67;;;9.60;;
7017;SDS011;3549;42.162;24.726;2023-07-20T06:46:27;17.98;;;9.10;;
7017;SDS011;3549;42.162;24.726;2023-07-20T06:48:53;16.35;;;9.40;;
7017;SDS011;3549;42.162;24.726;2023-07-20T06:51:19;16.58;;;9.27;;
7017;SDS011;3549;42.162;24.726;2023-07-20T06:53:44;12.30;;;8.57;;
7017;SDS011;3549;42.162;24.726;2023-07-20T06:56:10;19.20;;;9.40;;
7017;SDS011;3549;42.162;24.726;2023-07-20T06:58:36;12.13;;;8.98;;
7017;SDS011;3549;42.162;24.726;2023-07-20T07:01:07;17.50;;;9.82;;
7017;SDS011;3549;42.162;24.726;2023-07-20T07:03:33;13.38;;;9.45;;
7017;SDS011;3549;42.162;24.726;2023-07-20T07:05:59;18.55;;;9.52;;
7017;SDS011;3549;42.162;24.726;2023-07-20T07:08:25;14.05;;;9.32;;
7017;SDS011;3549;42.162;24.726;2023-07-20T07:10:50;15.65;;;9.20;;
7017;SDS011;3549;42.162;24.726;2023-07-20T07:13:17;16.10;;;8.93;;
7017;SDS011;3549;42.162;24.726;2023-07-20T07:15:42;16.50;;;9.27;;
7017;SDS011;3549;42.162;24.726;2023-07-20T07:18:08;12.48;;;8.43;;
7017;SDS011;3549;42.162;24.726;2023-07-20T07:20:33;12.90;;;8.82;;
7017;SDS011;3549;42.162;24.726;2023-07-20T07:22:59;14.18;;;9.52;;
7017;SDS011;3549;42.162;24.726;2023-07-20T07:25:25;11.45;;;9.02;;
7017;SDS011;3549;42.162;24.726;2023-07-20T07:27:52;13.93;;;8.57;;
7017;SDS011;3549;42.162;24.726;2023-07-20T07:30:18;11.50;;;8.20;;
7017;SDS011;3549;42.162;24.726;2023-07-20T07:32:43;12.35;;;9.18;;
7017;SDS011;3549;42.162;24.726;2023-07-20T07:35:09;13.40;;;8.30;;
7017;SDS011;3549;42.162;24.726;2023-07-20T07:37:34;17.75;;;8.75;;
7017;SDS011;3549;42.162;24.726;2023-07-20T07:40:00;16.52;;;9.13;;
7017;SDS011;3549;42.162;24.726;2023-07-20T07:42:25;16.98;;;9.38;;
7017;SDS011;3549;42.162;24.726;2023-07-20T07:44:50;18.15;;;8.80;;
7017;SDS011;3549;42.162;24.726;2023-07-20T07:47:16;12.38;;;8.10;;
7017;SDS011;3549;42.162;24.726;2023-07-20T07:49:42;13.88;;;8.20;;
7017;SDS011;3549;42.162;24.726;2023-07-20T07:52:07;10.93;;;7.75;;
7017;SDS011;3549;42.162;24.726;2023-07-20T07:54:33;15.55;;;7.95;;
7017;SDS011;3549;42.162;24.726;2023-07-20T07:56:59;12.68;;;8.57;;
7017;SDS011;3549;42.162;24.726;2023-07-20T07:59:24;12.13;;;8.55;;
7017;SDS011;3549;42.162;24.726;2023-07-20T08:01:50;12.07;;;8.25;;
7017;SDS011;3549;42.162;24.726;2023-07-20T08:04:15;14.40;;;8.75;;
7017;SDS011;3549;42.162;24.726;2023-07-20T08:06:40;12.80;;;8.70;;
7017;SDS011;3549;42.162;24.726;2023-07-20T08:09:06;15.05;;;9.30;;
7017;SDS011;3549;42.162;24.726;2023-07-20T08:11:31;13.43;;;8.95;;
7017;SDS011;3549;42.162;24.726;2023-07-20T08:13:59;18.50;;;9.32;;
7017;SDS011;3549;42.162;24.726;2023-07-20T08:16:25;13.45;;;9.27;;
7017;SDS011;3549;42.162;24.726;2023-07-20T08:18:51;15.32;;;8.77;;
7017;SDS011;3549;42.162;24.726;2023-07-20T08:21:16;15.57;;;8.70;;
7017;SDS011;3549;42.162;24.726;2023-07-20T08:23:45;11.68;;;8.73;;
7017;SDS011;3549;42.162;24.726;2023-07-20T08:26:10;14.13;;;9.63;;
7017;SDS011;3549;42.162;24.726;2023-07-20T08:28:36;11.18;;;8.93;;
7017;SDS011;3549;42.162;24.726;2023-07-20T08:31:02;15.23;;;8.82;;
7017;SDS011;3549;42.162;24.726;2023-07-20T08:33:30;12.02;;;8.23;;
7017;SDS011;3549;42.162;24.726;2023-07-20T08:35:58;11.20;;;8.77;;
7017;SDS011;3549;42.162;24.726;2023-07-20T08:38:24;14.15;;;8.70;;
7017;SDS011;3549;42.162;24.726;2023-07-20T08:40:49;10.95;;;8.90;;
7017;SDS011;3549;42.162;24.726;2023-07-20T08:43:18;11.52;;;8.90;;
7017;SDS011;3549;42.162;24.726;2023-07-20T08:45:44;13.02;;;8.70;;
7017;SDS011;3549;42.162;24.726;2023-07-20T08:48:10;11.73;;;8.88;;
7017;SDS011;3549;42.162;24.726;2023-07-20T08:50:37;13.90;;;9.13;;
7017;SDS011;3549;42.162;24.726;2023-07-20T08:53:03;13.55;;;8.85;;
7017;SDS011;3549;42.162;24.726;2023-07-20T08:55:29;16.80;;;9.15;;
7017;SDS011;3549;42.162;24.726;2023-07-20T08:57:56;11.52;;;7.93;;
7017;SDS011;3549;42.162;24.726;2023-07-20T09:00:23;11.52;;;8.95;;
7017;SDS011;3549;42.162;24.726;2023-07-20T09:02:50;12.18;;;8.40;;
7017;SDS011;3549;42.162;24.726;2023-07-20T09:05:17;12.43;;;8.50;;
7017;SDS011;3549;42.162;24.726;2023-07-20T09:07:43;14.98;;;8.38;;
7017;SDS011;3549;42.162;24.726;2023-07-20T09:10:09;12.98;;;8.43;;
7017;SDS011;3549;42.162;24.726;2023-07-20T09:12:35;15.50;;;8.45;;
7017;SDS011;3549;42.162;24.726;2023-07-20T09:15:04;11.38;;;8.55;;
7017;SDS011;3549;42.162;24.726;2023-07-20T09:17:30;10.25;;;8.55;;
7017;SDS011;3549;42.162;24.726;2023-07-20T09:19:56;10.88;;;9.00;;
7017;SDS011;3549;42.162;24.726;2023-07-20T09:22:21;13.43;;;8.90;;
7017;SDS011;3549;42.162;24.726;2023-07-20T09:24:46;13.38;;;8.50;;
7017;SDS011;3549;42.162;24.726;2023-07-20T09:27:12;11.82;;;8.82;;
7017;SDS011;3549;42.162;24.726;2023-07-20T09:29:50;14.05;;;9.18;;
7017;SDS011;3549;42.162;24.726;2023-07-20T09:32:20;13.80;;;9.02;;
7017;SDS011;3549;42.162;24.726;2023-07-20T09:34:46;11.77;;;8.98;;
7017;SDS011;3549;42.162;24.726;2023-07-20T09:37:12;11.90;;;8.80;;
7017;SDS011;3549;42.162;24.726;2023-07-20T09:39:44;13.95;;;8.82;;
7017;SDS011;3549;42.162;24.726;2023-07-20T09:42:14;11.52;;;8.85;;
7017;SDS011;3549;42.162;24.726;2023-07-20T09:44:39;16.05;;;10.85;;
7017;SDS011;3549;42.162;24.726;2023-07-20T09:47:08;18.25;;;9.10;;
7017;SDS011;3549;42.162;24.726;2023-07-20T09:49:38;11.68;;;9.13;;
7017;SDS011;3549;42.162;24.726;2023-07-20T09:52:05;14.90;;;9.05;;
7017;SDS011;3549;42.162;24.726;2023-07-20T09:54:31;15.13;;;9.23;;
7017;SDS011;3549;42.162;24.726;2023-07-20T09:56:57;12.80;;;8.90;;
7017;SDS011;3549;42.162;24.726;2023-07-20T09:59:23;12.48;;;9.10;;
7017;SDS011;3549;42.162;24.726;2023-07-20T10:01:49;12.75;;;9.63;;
7017;SDS011;3549;42.162;24.726;2023-07-20T10:04:16;12.35;;;9.35;;
7017;SDS011;3549;42.162;24.726;2023-07-20T10:06:43;13.25;;;9.43;;
7017;SDS011;3549;42.162;24.726;2023-07-20T10:09:12;13.48;;;9.30;;
7017;SDS011;3549;42.162;24.726;2023-07-20T10:11:40;12.20;;;8.63;;
7017;SDS011;3549;42.162;24.726;2023-07-20T10:14:11;12.40;;;8.20;;
7017;SDS011;3549;42.162;24.726;2023-07-20T10:16:43;12.57;;;8.57;;
7017;SDS011;3549;42.162;24.726;2023-07-20T10:19:23;14.02;;;8.60;;
7017;SDS011;3549;42.162;24.726;2023-07-20T10:22:07;10.70;;;8.85;;
7017;SDS011;3549;42.162;24.726;2023-07-20T10:24:38;11.93;;;8.23;;
7017;SDS011;3549;42.162;24.726;2023-07-20T10:27:05;14.30;;;8.57;;
7017;SDS011;3549;42.162;24.726;2023-07-20T10:29:30;12.20;;;8.80;;
7017;SDS011;3549;42.162;24.726;2023-07-20T10:31:57;11.30;;;8.23;;
7017;SDS011;3549;42.162;24.726;2023-07-20T10:34:23;18.13;;;8.40;;
7017;SDS011;3549;42.162;24.726;2023-07-20T10:36:49;12.77;;;7.95;;
7017;SDS011;3549;42.162;24.726;2023-07-20T10:39:32;14.10;;;8.27;;
7017;SDS011;3549;42.162;24.726;2023-07-20T10:44:33;12.93;;;7.97;;
7017;SDS011;3549;42.162;24.726;2023-07-20T10:46:59;12.88;;;7.55;;
7017;SDS011;3549;42.162;24.726;2023-07-20T10:49:26;13.38;;;8.05;;
7017;SDS011;3549;42.162;24.726;2023-07-20T10:51:56;11.45;;;7.10;;
7017;SDS011;3549;42.162;24.726;2023-07-20T10:56:49;11.20;;;7.22;;
7017;SDS011;3549;42.162;24.726;2023-07-20T11:01:49;10.15;;;7.38;;
7017;SDS011;3549;42.162;24.726;2023-07-20T11:04:20;12.25;;;7.70;;
7017;SDS011;3549;42.162;24.726;2023-07-20T11:07:10;11.35;;;7.40;;
7017;SDS011;3549;42.162;24.726;2023-07-20T11:09:36;10.18;;;6.95;;
7017;SDS011;3549;42.162;24.726;2023-07-20T11:12:12;10.98;;;7.30;;
7017;SDS011;3549;42.162;24.726;2023-07-20T11:14:42;14.00;;;7.20;;
7017;SDS011;3549;42.162;24.726;2023-07-20T11:17:22;9.63;;;6.82;;
7017;SDS011;3549;42.162;24.726;2023-07-20T11:19:57;10.40;;;7.38;;
7017;SDS011;3549;42.162;24.726;2023-07-20T11:22:28;11.30;;;7.03;;
7017;SDS011;3549;42.162;24.726;2023-07-20T11:24:56;12.57;;;7.68;;
7017;SDS011;3549;42.162;24.726;2023-07-20T11:27:22;9.80;;;7.30;;
7017;SDS011;3549;42.162;24.726;2023-07-20T11:29:47;12.45;;;7.70;;
7017;SDS011;3549;42.162;24.726;2023-07-20T11:32:19;9.98;;;7.05;;
7017;SDS011;3549;42.162;24.726;2023-07-20T11:34:47;11.23;;;6.93;;
7017;SDS011;3549;42.162;24.726;2023-07-20T11:37:12;11.02;;;6.90;;
7017;SDS011;3549;42.162;24.726;2023-07-20T11:39:38;8.40;;;6.60;;
7017;SDS011;3549;42.162;24.726;2023-07-20T11:42:05;9.80;;;7.10;;
7017;SDS011;3549;42.162;24.726;2023-07-20T11:44:31;7.50;;;6.70;;
7017;SDS011;3549;42.162;24.726;2023-07-20T11:47:03;10.82;;;6.32;;
7017;SDS011;3549;42.162;24.726;2023-07-20T11:49:29;12.57;;;6.72;;
7017;SDS011;3549;42.162;24.726;2023-07-20T11:51:55;7.82;;;6.53;;
7017;SDS011;3549;42.162;24.726;2023-07-20T11:54:22;14.50;;;6.57;;
7017;SDS011;3549;42.162;24.726;2023-07-20T11:56:53;9.05;;;6.68;;
7017;SDS011;3549;42.162;24.726;2023-07-20T11:59:18;11.07;;;7.10;;
7017;SDS011;3549;42.162;24.726;2023-07-20T12:01:44;12.90;;;6.93;;
7017;SDS011;3549;42.162;24.726;2023-07-20T12:04:09;8.52;;;6.80;;
7017;SDS011;3549;42.162;24.726;2023-07-20T12:06:35;10.80;;;6.47;;
7017;SDS011;3549;42.162;24.726;2023-07-20T12:09:00;10.00;;;6.60;;
7017;SDS011;3549;42.162;24.726;2023-07-20T12:14:02;10.57;;;6.55;;
7017;SDS011;3549;42.162;24.726;2023-07-20T12:16:29;11.75;;;6.75;;
7017;SDS011;3549;42.162;24.726;2023-07-20T12:19:05;9.63;;;6.40;;
7017;SDS011;3549;42.162;24.726;2023-07-20T12:21:33;10.13;;;6.63;;
7017;SDS011;3549;42.162;24.726;2023-07-20T12:24:01;13.27;;;6.88;;
7017;SDS011;3549;42.162;24.726;2023-07-20T12:26:28;12.40;;;6.80;;
7017;SDS011;3549;42.162;24.726;2023-07-20T12:28:55;9.38;;;7.00;;
7017;SDS011;3549;42.162;24.726;2023-07-20T12:31:20;11.07;;;6.57;;
7017;SDS011;3549;42.162;24.726;2023-07-20T12:33:47;10.98;;;6.90;;
7017;SDS011;3549;42.162;24.726;2023-07-20T12:36:13;16.52;;;6.70;;
7017;SDS011;3549;42.162;24.726;2023-07-20T12:38:38;14.00;;;6.45;;
7017;SDS011;3549;42.162;24.726;2023-07-20T12:41:04;15.32;;;6.75;;
7017;SDS011;3549;42.162;24.726;2023-07-20T12:43:29;11.07;;;6.75;;
7017;SDS011;3549;42.162;24.726;2023-07-20T12:45:56;16.10;;;7.22;;
7017;SDS011;3549;42.162;24.726;2023-07-20T12:48:22;12.93;;;7.05;;
7017;SDS011;3549;42.162;24.726;2023-07-20T12:50:48;21.55;;;7.65;;
7017;SDS011;3549;42.162;24.726;2023-07-20T12:53:14;19.45;;;7.97;;
7017;SDS011;3549;42.162;24.726;2023-07-20T12:55:40;12.38;;;7.85;;
7017;SDS011;3549;42.162;24.726;2023-07-20T12:58:06;18.35;;;12.95;;
7017;SDS011;3549;42.162;24.726;2023-07-20T13:00:32;16.58;;;8.70;;
7017;SDS011;3549;42.162;24.726;2023-07-20T13:02:58;14.18;;;7.70;;
7017;SDS011;3549;42.162;24.726;2023-07-20T13:05:23;16.88;;;7.80;;
7017;SDS011;3549;42.162;24.726;2023-07-20T13:07:49;15.10;;;7.60;;
7017;SDS011;3549;42.162;24.726;2023-07-20T13:10:15;14.80;;;7.57;;
7017;SDS011;3549;42.162;24.726;2023-07-20T13:12:41;13.55;;;7.43;;
7017;SDS011;3549;42.162;24.726;2023-07-20T13:15:06;12.38;;;7.70;;
7017;SDS011;3549;42.162;24.726;2023-07-20T13:17:33;20.00;;;9.43;;
7017;SDS011;3549;42.162;24.726;2023-07-20T13:20:04;11.93;;;7.70;;
7017;SDS011;3549;42.162;24.726;2023-07-20T13:22:33;14.95;;;10.48;;
7017;SDS011;3549;42.162;24.726;2023-07-20T13:24:59;12.43;;;7.82;;
7017;SDS011;3549;42.162;24.726;2023-07-20T13:27:25;14.43;;;7.47;;
7017;SDS011;3549;42.162;24.726;2023-07-20T13:29:51;10.93;;;7.50;;
7017;SDS011;3549;42.162;24.726;2023-07-20T13:32:17;8.63;;;7.40;;
7017;SDS011;3549;42.162;24.726;2023-07-20T13:34:45;9.82;;;6.80;;
7017;SDS011;3549;42.162;24.726;2023-07-20T13:37:12;8.40;;;6.78;;
7017;SDS011;3549;42.162;24.726;2023-07-20T13:39:37;21.33;;;11.27;;
7017;SDS011;3549;42.162;24.726;2023-07-20T13:42:03;9.10;;;6.70;;
7017;SDS011;3549;42.162;24.726;2023-07-20T13:44:39;12.77;;;6.32;;
7017;SDS011;3549;42.162;24.726;2023-07-20T13:47:04;10.45;;;6.63;;
7017;SDS011;3549;42.162;24.726;2023-07-20T13:49:30;15.43;;;6.75;;
7017;SDS011;3549;42.162;24.726;2023-07-20T13:51:56;11.82;;;6.40;;
7017;SDS011;3549;42.162;24.726;2023-07-20T13:54:22;13.35;;;6.68;;
7017;SDS011;3549;42.162;24.726;2023-07-20T13:56:48;10.68;;;6.53;;
7017;SDS011;3549;42.162;24.726;2023-07-20T13:59:13;10.00;;;6.50;;
7017;SDS011;3549;42.162;24.726;2023-07-20T14:01:38;12.98;;;6.80;;
7017;SDS011;3549;42.162;24.726;2023-07-20T14:04:04;11.45;;;6.55;;
7017;SDS011;3549;42.162;24.726;2023-07-20T14:06:29;11.00;;;6.40;;
7017;SDS011;3549;42.162;24.726;2023-07-20T14:08:57;13.73;;;6.72;;
7017;SDS011;3549;42.162;24.726;2023-07-20T14:11:23;16.50;;;6.57;;
7017;SDS011;3549;42.162;24.726;2023-07-20T14:13:49;9.50;;;5.88;;
7017;SDS011;3549;42.162;24.726;2023-07-20T14:16:16;8.95;;;6.28;;
7017;SDS011;3549;42.162;24.726;2023-07-20T14:18:41;11.23;;;5.88;;
7017;SDS011;3549;42.162;24.726;2023-07-20T14:21:07;12.70;;;6.57;;
7017;SDS011;3549;42.162;24.726;2023-07-20T14:23:33;11.25;;;6.30;;
7017;SDS011;3549;42.162;24.726;2023-07-20T14:25:58;11.77;;;5.95;;
7017;SDS011;3549;42.162;24.726;2023-07-20T14:28:24;11.60;;;5.75;;
7017;SDS011;3549;42.162;24.726;2023-07-20T14:30:49;10.63;;;5.78;;
7017;SDS011;3549;42.162;24.726;2023-07-20T14:33:15;12.40;;;5.80;;
7017;SDS011;3549;42.162;24.726;2023-07-20T14:35:40;11.68;;;6.00;;
7017;SDS011;3549;42.162;24.726;2023-07-20T14:38:06;11.25;;;6.00;;
7017;SDS011;3549;42.162;24.726;2023-07-20T14:40:31;9.98;;;5.70;;
7017;SDS011;3549;42.162;24.726;2023-07-20T14:42:57;11.10;;;6.30;;
7017;SDS011;3549;42.162;24.726;2023-07-20T14:45:23;12.68;;;6.28;;
7017;SDS011;3549;42.162;24.726;2023-07-20T14:47:48;9.85;;;5.55;;
7017;SDS011;3549;42.162;24.726;2023-07-20T14:50:19;10.05;;;5.78;;
7017;SDS011;3549;42.162;24.726;2023-07-20T14:52:45;9.43;;;5.63;;
7017;SDS011;3549;42.162;24.726;2023-07-20T14:55:11;9.95;;;4.80;;
7017;SDS011;3549;42.162;24.726;2023-07-20T14:57:36;12.70;;;5.05;;
7017;SDS011;3549;42.162;24.726;2023-07-20T15:00:02;9.45;;;4.72;;
7017;SDS011;3549;42.162;24.726;2023-07-20T15:02:32;13.13;;;4.70;;
7017;SDS011;3549;42.162;24.726;2023-07-20T15:04:57;12.85;;;4.32;;